Time;durP1;ratioP1;P1;durP2;ratioP2;P2;SDS_P1;SDS_P2;PMS_P1;PMS_P2;Temp;Humidity;BMP_temperature;BMP_pressure;BME280_temperature;BME280_humidity;BME280_pressure;Samples;Min_cycle;Max_cycle;Signal;HPM_P1;HPM_P2
2023/12/21 00:01:03;;;;;;;22.90;14.02;;;;;;;2.52;71.43;94382.91;5108056;28;20031;-79
2023/12/21 00:03:28;;;;;;;17.30;11.20;;;;;;;2.56;69.27;94372.78;5108282;28;20119;-79
2023/12/21 00:05:54;;;;;;;30.45;15.68;;;;;;;2.61;71.10;94375.09;5108148;28;20497;-79
2023/12/21 00:08:19;;;;;;;24.75;14.60;;;;;;;2.91;71.54;94377.94;5107992;28;20027;-79
2023/12/21 00:10:44;;;;;;;21.02;13.57;;;;;;;2.55;70.22;94379.41;5107948;28;20024;-77
2023/12/21 00:13:10;;;;;;;22.48;13.93;;;;;;;2.75;70.07;94374.19;5107287;28;20528;-78
2023/12/21 00:15:35;;;;;;;18.40;10.93;;;;;;;2.71;68.30;94387.03;5106440;28;20023;-77
2023/12/21 00:18:00;;;;;;;22.40;14.73;;;;;;;2.75;69.78;94391.25;5107611;28;20020;-78
2023/12/21 00:20:26;;;;;;;23.60;14.10;;;;;;;3.08;71.29;94389.06;5107736;28;20506;-78
2023/12/21 00:22:51;;;;;;;22.08;12.95;;;;;;;2.60;70.05;94390.59;5107052;28;20456;-77
2023/12/21 00:25:18;;;;;;;22.90;14.52;;;;;;;2.78;69.55;94401.31;5107536;28;20099;-78
2023/12/21 00:27:43;;;;;;;20.00;12.60;;;;;;;2.80;68.01;94407.13;5107870;28;20041;-78
2023/12/21 00:30:09;;;;;;;25.80;16.73;;;;;;;2.66;70.27;94408.00;5107250;28;20623;-78
2023/12/21 00:32:34;;;;;;;29.00;18.00;;;;;;;2.86;69.73;94415.59;5107624;28;20482;-78
2023/12/21 00:35:00;;;;;;;23.98;13.73;;;;;;;2.78;68.59;94408.69;5106860;28;20069;-78
2023/12/21 00:37:25;;;;;;;29.45;17.48;;;;;;;2.79;70.02;94410.25;5107410;28;20023;-77
2023/12/21 00:39:51;;;;;;;26.60;18.13;;;;;;;2.96;70.01;94408.56;5106468;28;20027;-78
2023/12/21 00:42:16;;;;;;;22.52;14.57;;;;;;;2.78;67.65;94409.47;5106108;28;20110;-78
2023/12/21 00:44:42;;;;;;;30.10;19.05;;;;;;;2.82;70.05;94414.88;5105416;28;20577;-77
2023/12/21 00:47:08;;;;;;;32.53;17.98;;;;;;;2.90;70.23;94419.06;5107052;28;20020;-77
2023/12/21 00:49:33;;;;;;;33.25;19.00;;;;;;;3.11;69.08;94426.28;5107347;28;20039;-78
2023/12/21 00:51:59;;;;;;;26.67;15.30;;;;;;;3.18;67.19;94423.50;5106643;28;20028;-78
2023/12/21 00:54:24;;;;;;;30.88;19.80;;;;;;;2.87;69.63;94409.03;5107217;28;20028;-78
2023/12/21 00:56:49;;;;;;;37.63;21.10;;;;;;;2.97;69.56;94413.59;5106141;28;20031;-77
2023/12/21 00:59:15;;;;;;;29.38;20.17;;;;;;;3.12;69.15;94423.16;5106953;27;20027;-78
2023/12/21 01:01:41;;;;;;;32.67;21.40;;;;;;;3.23;68.60;94433.94;5106111;28;20844;-78
2023/12/21 01:04:06;;;;;;;31.55;20.52;;;;;;;3.33;68.17;94421.44;5106760;28;20028;-78
2023/12/21 01:06:36;;;;;;;31.60;20.92;;;;;;;3.39;67.50;94426.03;5106915;28;20244;-78
2023/12/21 01:09:01;;;;;;;31.67;20.48;;;;;;;3.42;67.48;94416.28;5106179;28;20042;-77
2023/12/21 01:11:26;;;;;;;33.55;21.52;;;;;;;3.50;67.27;94430.56;5107432;28;20020;-78
2023/12/21 01:13:52;;;;;;;33.67;20.80;;;;;;;3.51;67.18;94432.91;5105906;28;20055;-78
2023/12/21 01:16:18;;;;;;;33.40;21.48;;;;;;;3.56;66.96;94434.41;5107162;28;20080;-77
2023/12/21 01:18:44;;;;;;;32.95;20.55;;;;;;;3.65;66.56;94430.03;5106092;28;20029;-78
2023/12/21 01:21:09;;;;;;;32.72;19.70;;;;;;;3.21;67.42;94433.56;5106798;28;20102;-77
2023/12/21 01:23:35;;;;;;;32.38;21.88;;;;;;;3.19;68.15;94425.81;5106300;28;20027;-77
2023/12/21 01:26:00;;;;;;;27.90;18.77;;;;;;;2.94;67.80;94425.25;5106946;28;20031;-77
2023/12/21 01:28:25;;;;;;;33.05;21.17;;;;;;;2.91;69.15;94426.03;5107053;28;20478;-78
2023/12/21 01:30:51;;;;;;;33.85;20.80;;;;;;;2.96;69.36;94431.06;5105924;28;20061;-77
2023/12/21 01:33:16;;;;;;;25.42;15.50;;;;;;;2.92;66.88;94416.72;5107066;28;20030;-78
2023/12/21 01:35:41;;;;;;;32.95;21.10;;;;;;;2.64;70.04;94428.59;5104453;28;20035;-77
2023/12/21 01:38:07;;;;;;;30.42;19.88;;;;;;;2.74;70.10;94416.84;5106735;28;20031;-77
2023/12/21 01:40:32;;;;;;;30.20;19.00;;;;;;;2.68;68.69;94415.75;5104216;28;20031;-77
2023/12/21 01:42:57;;;;;;;34.83;21.17;;;;;;;2.61;70.41;94421.22;5106316;28;20055;-79
2023/12/21 01:45:23;;;;;;;32.33;20.73;;;;;;;2.74;70.14;94426.94;5106581;28;20062;-78
2023/12/21 01:47:49;;;;;;;20.08;15.02;;;;;;;2.50;68.71;94417.81;5106080;28;20032;-78
2023/12/21 01:50:14;;;;;;;37.90;21.73;;;;;;;2.50;70.77;94425.94;5105327;28;20390;-78
2023/12/21 01:52:40;;;;;;;32.47;20.92;;;;;;;2.66;70.41;94418.09;5105521;28;20020;-78
2023/12/21 01:55:07;;;;;;;32.95;20.70;;;;;;;2.42;69.91;94413.59;5106396;28;20068;-78
2023/12/21 01:57:33;;;;;;;37.80;23.30;;;;;;;2.48;70.73;94415.50;5105381;28;20673;-78
2023/12/21 01:59:58;;;;;;;33.65;21.23;;;;;;;2.83;73.63;94406.34;5106117;28;20058;-77
2023/12/21 02:02:24;;;;;;;31.35;20.23;;;;;;;2.38;70.33;94414.38;5105037;28;20521;-77
2023/12/21 02:04:50;;;;;;;36.83;23.02;;;;;;;2.47;70.95;94418.63;5104243;28;20035;-77
2023/12/21 02:07:16;;;;;;;29.67;17.67;;;;;;;2.45;68.21;94418.22;5106321;28;20024;-77
2023/12/21 02:09:41;;;;;;;42.92;23.90;;;;;;;2.25;71.33;94424.16;5104940;28;20169;-77
2023/12/21 02:12:07;;;;;;;42.05;25.08;;;;;;;2.42;71.25;94421.75;5106151;28;20038;-77
2023/12/21 02:14:32;;;;;;;35.50;22.63;;;;;;;2.32;70.42;94413.25;5105704;28;20054;-77
2023/12/21 02:17:03;;;;;;;37.55;24.10;;;;;;;2.18;72.07;94418.78;5110302;28;20040;-77
2023/12/21 02:19:28;;;;;;;37.53;23.92;;;;;;;2.34;71.57;94424.47;5109708;28;20047;-78
2023/12/21 02:21:55;;;;;;;36.47;22.73;;;;;;;2.04;71.69;94421.53;5108288;28;20490;-78
2023/12/21 02:24:20;;;;;;;38.92;24.67;;;;;;;2.17;71.96;94414.50;5109022;28;20028;-77
2023/12/21 02:26:46;;;;;;;32.85;20.52;;;;;;;2.48;72.22;94409.31;5108079;28;20024;-78
2023/12/21 02:29:12;;;;;;;40.63;25.55;;;;;;;1.94;72.57;94420.41;5109320;28;20159;-75
2023/12/21 02:31:37;;;;;;;38.95;24.20;;;;;;;2.15;72.18;94421.50;5109162;28;20066;-77
2023/12/21 02:34:03;;;;;;;30.85;20.02;;;;;;;2.00;70.71;94426.19;5108983;28;20046;-78
2023/12/21 02:36:29;;;;;;;38.33;24.63;;;;;;;1.96;72.98;94428.16;5108283;28;20031;-77
2023/12/21 02:38:54;;;;;;;40.15;23.65;;;;;;;2.11;72.43;94433.13;5109847;28;20031;-78
2023/12/21 02:41:20;;;;;;;31.85;19.38;;;;;;;1.96;71.04;94433.59;5110224;27;20443;-78
2023/12/21 02:43:45;;;;;;;36.45;22.92;;;;;;;2.00;72.75;94437.81;5109749;28;20070;-78
2023/12/21 02:46:10;;;;;;;38.80;23.13;;;;;;;2.35;76.02;94438.81;5109119;28;20038;-77
2023/12/21 02:48:36;;;;;;;30.25;19.58;;;;;;;2.01;71.86;94433.94;5108555;28;20042;-77
2023/12/21 02:51:01;;;;;;;39.97;24.20;;;;;;;1.97;72.70;94432.41;5109853;28;20046;-77
2023/12/21 02:53:26;;;;;;;42.13;24.83;;;;;;;2.29;73.97;94443.09;5109084;28;20028;-77
2023/12/21 02:55:52;;;;;;;36.50;22.17;;;;;;;1.93;72.57;94426.22;5109405;28;20028;-78
2023/12/21 02:58:17;;;;;;;38.17;22.80;;;;;;;2.11;72.67;94418.78;5107489;28;20120;-78
2023/12/21 03:00:43;;;;;;;35.72;21.92;;;;;;;2.18;71.40;94417.97;5108925;28;20490;-77
2023/12/21 03:03:08;;;;;;;36.97;22.42;;;;;;;2.04;72.64;94418.81;5108039;28;20466;-78
2023/12/21 03:05:34;;;;;;;38.67;24.90;;;;;;;2.13;72.79;94419.94;5108724;28;20047;-78
2023/12/21 03:07:59;;;;;;;27.73;17.40;;;;;;;2.17;70.19;94424.56;5109468;28;20023;-78
2023/12/21 03:10:24;;;;;;;32.65;21.17;;;;;;;2.19;72.16;94424.97;5108006;28;20114;-77
2023/12/21 03:12:50;;;;;;;35.08;22.48;;;;;;;2.31;73.36;94430.72;5107713;28;20107;-77
2023/12/21 03:15:15;;;;;;;29.67;18.48;;;;;;;2.19;71.23;94433.09;5108706;28;20401;-78
2023/12/21 03:17:41;;;;;;;37.53;21.95;;;;;;;2.26;72.31;94443.91;5109003;28;20053;-78
2023/12/21 03:20:07;;;;;;;30.27;19.55;;;;;;;2.53;74.86;94446.88;5108566;28;20023;-78
2023/12/21 03:22:34;;;;;;;32.78;18.70;;;;;;;2.34;71.23;94445.41;5108542;28;20027;-78
2023/12/21 03:24:59;;;;;;;35.85;21.67;;;;;;;2.42;72.03;94448.88;5108850;28;20027;-77
2023/12/21 03:27:25;;;;;;;29.58;17.92;;;;;;;2.74;72.77;94444.00;5108129;28;20053;-77
2023/12/21 03:29:50;;;;;;;32.25;20.27;;;;;;;2.40;71.62;94457.38;5108844;28;20023;-76
2023/12/21 03:32:15;;;;;;;31.60;19.65;;;;;;;2.48;71.79;94450.00;5108220;28;20107;-77
2023/12/21 03:34:41;;;;;;;21.23;12.85;;;;;;;2.30;69.69;94452.81;5108407;28;20027;-77
2023/12/21 03:37:06;;;;;;;34.95;20.73;;;;;;;2.30;72.21;94447.38;5106586;28;20034;-78
2023/12/21 03:39:33;;;;;;;34.20;20.20;;;;;;;2.48;71.84;94453.47;5108531;28;20106;-78
2023/12/21 03:41:59;;;;;;;26.50;15.88;;;;;;;2.30;69.92;94453.59;5108272;28;20032;-78
2023/12/21 03:44:24;;;;;;;35.38;19.92;;;;;;;2.39;71.73;94455.84;5108024;28;20050;-76
2023/12/21 03:46:50;;;;;;;32.35;20.30;;;;;;;2.52;72.26;94462.34;5107424;28;20492;-77
2023/12/21 03:49:15;;;;;;;27.90;16.65;;;;;;;2.40;70.17;94457.38;5108034;28;20355;-77
2023/12/21 03:51:41;;;;;;;29.98;19.73;;;;;;;2.47;71.98;94460.09;5109037;28;20024;-77
2023/12/21 03:54:07;;;;;;;16.83;12.85;;;;;;;2.60;70.10;94469.31;5107862;28;20032;-77
2023/12/21 03:56:32;;;;;;;33.55;19.73;;;;;;;2.40;71.68;94470.94;5108448;28;20109;-77
2023/12/21 03:58:57;;;;;;;29.60;19.90;;;;;;;2.46;72.09;94474.03;5107476;28;20019;-78
2023/12/21 04:01:24;;;;;;;28.90;16.75;;;;;;;2.54;69.48;94461.97;5107927;28;20481;-78
2023/12/21 04:03:50;;;;;;;30.80;20.25;;;;;;;2.39;71.78;94462.03;5106932;28;20023;-78
2023/12/21 04:06:15;;;;;;;31.83;20.10;;;;;;;2.53;72.49;94466.63;5107757;28;20031;-78
2023/12/21 04:08:40;;;;;;;24.90;14.82;;;;;;;2.47;69.88;94462.03;5108355;27;20460;-78
2023/12/21 04:11:06;;;;;;;29.35;17.45;;;;;;;2.37;72.23;94464.38;5107289;28;20023;-77
2023/12/21 04:13:31;;;;;;;25.50;16.73;;;;;;;2.57;71.92;94459.22;5107848;28;20079;-78
2023/12/21 04:15:56;;;;;;;26.45;15.75;;;;;;;2.49;70.45;94455.03;5107421;28;20140;-78
2023/12/21 04:18:22;;;;;;;23.92;14.73;;;;;;;2.55;71.28;94449.94;5108118;28;20055;-78
2023/12/21 04:20:47;;;;;;;23.70;13.65;;;;;;;2.91;71.81;94450.47;5107579;28;20016;-78
2023/12/21 04:23:13;;;;;;;20.02;13.50;;;;;;;2.42;71.13;94455.06;5105734;28;20244;-78
2023/12/21 04:25:38;;;;;;;20.00;12.77;;;;;;;2.56;71.37;94454.97;5108234;28;20544;-78
2023/12/21 04:28:04;;;;;;;13.82;9.50;;;;;;;2.65;70.05;94462.69;5107228;28;20028;-78
2023/12/21 04:30:29;;;;;;;20.58;12.63;;;;;;;2.56;71.09;94454.22;5108032;28;20031;-77
2023/12/21 04:32:55;;;;;;;25.05;13.60;;;;;;;2.70;70.98;94456.06;5106987;28;20056;-77
2023/12/21 04:35:20;;;;;;;13.80;8.10;;;;;;;2.66;69.36;94454.16;5107677;27;20474;-76
2023/12/21 04:37:46;;;;;;;15.23;10.38;;;;;;;2.59;70.46;94450.72;5106386;28;20039;-78
2023/12/21 04:40:11;;;;;;;16.65;10.45;;;;;;;2.72;70.34;94461.88;5107247;28;20031;-77
2023/12/21 04:42:36;;;;;;;14.07;8.57;;;;;;;2.60;67.64;94463.09;5106358;28;20027;-78
2023/12/21 04:45:02;;;;;;;15.95;10.07;;;;;;;2.58;70.84;94470.84;5106597;28;20027;-79
2023/12/21 04:47:27;;;;;;;15.82;9.93;;;;;;;2.74;71.02;94463.00;5107758;28;20038;-77
2023/12/21 04:49:53;;;;;;;15.55;9.25;;;;;;;2.44;70.29;94463.56;5106268;28;20020;-77
2023/12/21 04:52:18;;;;;;;15.75;9.85;;;;;;;2.57;70.68;94451.09;5107511;28;20063;-78
2023/12/21 04:54:44;;;;;;;17.73;10.50;;;;;;;2.67;70.45;94446.78;5106424;28;20051;-78
2023/12/21 04:57:09;;;;;;;14.73;9.43;;;;;;;2.56;69.33;94465.06;5107314;28;20107;-78
2023/12/21 04:59:39;;;;;;;18.38;11.23;;;;;;;2.65;70.23;94462.69;5106758;28;20024;-77
2023/12/21 05:02:05;;;;;;;14.73;7.47;;;;;;;2.82;68.72;94464.53;5106252;28;20031;-78
2023/12/21 05:04:30;;;;;;;14.18;8.73;;;;;;;2.59;70.46;94458.84;5107613;28;20084;-77
2023/12/21 05:06:57;;;;;;;13.82;8.95;;;;;;;2.73;70.06;94464.19;5105887;28;20038;-77
2023/12/21 05:09:22;;;;;;;11.45;6.75;;;;;;;2.78;67.12;94452.13;5107008;28;20418;-77
2023/12/21 05:11:48;;;;;;;13.82;8.90;;;;;;;2.64;69.77;94455.72;5106229;28;20028;-76
2023/12/21 05:14:13;;;;;;;16.25;10.05;;;;;;;2.78;69.46;94457.56;5105506;28;20138;-78
2023/12/21 05:16:39;;;;;;;12.05;7.55;;;;;;;2.83;67.47;94468.78;5106667;28;20019;-78
2023/12/21 05:19:06;;;;;;;13.60;8.63;;;;;;;2.69;69.64;94465.38;5106122;28;20019;-78
2023/12/21 05:21:32;;;;;;;14.05;7.82;;;;;;;2.81;69.17;94470.31;5105713;28;20562;-77
2023/12/21 05:23:57;;;;;;;12.77;7.55;;;;;;;2.85;67.78;94471.84;5104403;28;20059;-78
2023/12/21 05:26:23;;;;;;;13.48;8.85;;;;;;;2.52;70.18;94475.16;5107539;28;20026;-78
2023/12/21 05:28:48;;;;;;;14.68;8.90;;;;;;;2.75;69.45;94469.97;5105887;28;20418;-78
2023/12/21 05:31:22;;;;;;;11.57;7.30;;;;;;;2.54;67.85;94465.47;5106924;28;20031;-77
2023/12/21 05:33:47;;;;;;;;;;;;;;;2.59;69.97;94469.72;5105553;28;20038;-78
2023/12/21 05:36:19;;;;;;;10.68;6.75;;;;;;;2.99;71.58;94478.38;5106329;28;19911;-78
2023/12/21 05:38:45;;;;;;;14.13;8.63;;;;;;;2.49;69.56;94475.97;5106468;28;20027;-79
2023/12/21 05:41:10;;;;;;;13.23;8.05;;;;;;;2.61;69.68;94478.97;5105437;28;20031;-78
2023/12/21 05:43:37;;;;;;;17.83;10.27;;;;;;;2.97;69.62;94462.47;5107124;28;20118;-79
2023/12/21 05:46:03;;;;;;;13.18;8.13;;;;;;;3.03;68.13;94470.94;5105264;28;20031;-79
2023/12/21 05:48:29;;;;;;;14.45;8.90;;;;;;;3.11;67.56;94458.88;5106031;28;20026;-78
2023/12/21 05:50:55;;;;;;;15.73;9.57;;;;;;;3.17;67.32;94460.75;5103524;28;20024;-78
2023/12/21 05:53:20;;;;;;;13.75;8.63;;;;;;;3.28;66.58;94459.91;5106111;28;20023;-78
2023/12/21 05:55:46;;;;;;;13.48;8.73;;;;;;;3.30;66.04;94438.53;5105861;28;20497;-78
2023/12/21 05:58:11;;;;;;;15.52;9.45;;;;;;;3.37;65.64;94457.47;5105730;28;20028;-78
2023/12/21 06:00:37;;;;;;;15.32;8.75;;;;;;;3.52;65.03;94453.47;5106519;28;20027;-78
2023/12/21 06:03:03;;;;;;;14.80;9.25;;;;;;;3.59;64.94;94461.56;5104977;28;20196;-78
2023/12/21 06:05:28;;;;;;;13.63;8.88;;;;;;;3.56;65.06;94458.88;5106741;28;20073;-79
2023/12/21 06:07:54;;;;;;;15.55;10.40;;;;;;;3.59;65.09;94461.56;5104798;28;20045;-79
2023/12/21 06:10:19;;;;;;;14.13;9.25;;;;;;;3.69;64.85;94465.34;5105971;28;20124;-78
2023/12/21 06:12:45;;;;;;;14.18;9.57;;;;;;;3.71;64.75;94466.47;5104110;28;20020;-79
2023/12/21 06:15:10;;;;;;;13.60;9.05;;;;;;;3.87;63.70;94471.38;5105765;28;20062;-79
2023/12/21 06:17:36;;;;;;;12.93;8.52;;;;;;;3.83;63.74;94454.31;5106484;28;20502;-79
2023/12/21 06:20:02;;;;;;;12.20;8.40;;;;;;;3.89;63.42;94460.84;5104962;28;20490;-79
2023/12/21 06:22:27;;;;;;;11.15;8.00;;;;;;;3.95;62.57;94459.22;5106371;28;20028;-79
2023/12/21 06:24:53;;;;;;;12.18;7.57;;;;;;;4.00;62.22;94464.22;5105104;28;20034;-79
2023/12/21 06:27:18;;;;;;;13.75;8.60;;;;;;;4.05;61.95;94471.16;5106292;28;20402;-78
2023/12/21 06:29:43;;;;;;;11.98;7.93;;;;;;;4.03;62.08;94465.38;5105419;28;20451;-78
2023/12/21 06:32:09;;;;;;;12.45;8.60;;;;;;;3.98;62.20;94460.38;5105917;28;20032;-78
2023/12/21 06:34:34;;;;;;;12.50;8.40;;;;;;;4.11;62.15;94460.63;5106069;28;20034;-79
2023/12/21 06:37:00;;;;;;;12.50;8.10;;;;;;;4.13;61.88;94469.13;5104117;28;20474;-78
2023/12/21 06:39:26;;;;;;;12.07;8.18;;;;;;;4.14;62.02;94466.03;5106377;28;20495;-80
2023/12/21 06:41:51;;;;;;;14.00;8.45;;;;;;;4.15;61.95;94473.00;5103611;28;20020;-79
2023/12/21 06:44:17;;;;;;;14.88;9.68;;;;;;;4.23;62.03;94471.72;5104986;28;20072;-77
2023/12/21 06:46:42;;;;;;;13.43;9.25;;;;;;;4.32;61.51;94473.97;5105402;28;20023;-77
2023/12/21 06:49:11;;;;;;;13.45;9.40;;;;;;;4.34;61.37;94484.44;5105594;28;20463;-78
2023/12/21 06:51:37;;;;;;;15.27;9.68;;;;;;;4.40;61.41;94488.25;5104050;28;20019;-77
2023/12/21 06:54:03;;;;;;;15.68;9.50;;;;;;;4.49;60.99;94478.44;5103967;28;20036;-77
2023/12/21 06:56:29;;;;;;;15.48;9.73;;;;;;;4.56;60.68;94482.22;5106161;28;20049;-78
2023/12/21 06:58:54;;;;;;;13.25;8.80;;;;;;;4.58;60.36;94475.19;5104791;28;20100;-78
2023/12/21 07:01:26;;;;;;;11.77;7.72;;;;;;;4.67;59.98;94469.25;5107940;28;20030;-77
2023/12/21 07:03:52;;;;;;;14.57;9.30;;;;;;;4.64;59.92;94479.00;5108429;28;20035;-78
2023/12/21 07:06:18;;;;;;;15.00;9.38;;;;;;;4.63;60.42;94482.91;5108301;28;20077;-79
2023/12/21 07:08:43;;;;;;;14.18;8.63;;;;;;;4.64;60.12;94480.94;5107236;28;20359;-78
2023/12/21 07:11:10;;;;;;;13.32;9.13;;;;;;;4.68;59.97;94481.69;5107525;28;20110;-80
2023/12/21 07:13:35;;;;;;;14.02;8.13;;;;;;;4.77;59.34;94481.94;5107601;28;20047;-77
2023/12/21 07:16:01;;;;;;;11.07;7.95;;;;;;;4.85;58.80;94486.09;5108240;27;20035;-76
2023/12/21 07:18:27;;;;;;;12.10;8.15;;;;;;;4.88;58.84;94487.25;5109416;28;20039;-76
2023/12/21 07:20:52;;;;;;;10.30;7.03;;;;;;;4.95;58.42;94495.31;5106469;28;20027;-78
2023/12/21 07:23:18;;;;;;;12.70;7.95;;;;;;;5.02;58.11;94490.53;5109119;28;20095;-78
2023/12/21 07:25:43;;;;;;;10.73;7.25;;;;;;;5.05;57.81;94487.00;5108148;28;20031;-77
2023/12/21 07:28:09;;;;;;;10.98;7.50;;;;;;;5.07;57.06;94478.41;5108647;28;20057;-76
2023/12/21 07:30:34;;;;;;;9.88;6.63;;;;;;;5.11;57.00;94481.84;5108529;28;20149;-79
2023/12/21 07:32:59;;;;;;;10.55;6.97;;;;;;;5.14;56.55;94483.75;5108016;28;20050;-77
2023/12/21 07:35:25;;;;;;;10.75;7.63;;;;;;;5.19;56.78;94485.22;5109087;28;20015;-78
2023/12/21 07:37:50;;;;;;;10.85;7.25;;;;;;;5.19;56.42;94485.22;5106054;28;20095;-77
2023/12/21 07:40:16;;;;;;;12.85;7.82;;;;;;;5.23;56.64;94489.44;5109202;28;20034;-79
2023/12/21 07:42:41;;;;;;;12.20;8.10;;;;;;;5.44;56.07;94493.78;5106194;28;20393;-78
2023/12/21 07:45:07;;;;;;;12.10;7.85;;;;;;;5.56;55.18;94506.84;5108689;28;20397;-78
2023/12/21 07:47:32;;;;;;;11.60;8.10;;;;;;;5.91;54.38;94507.44;5108075;28;20027;-77
2023/12/21 07:49:58;;;;;;;14.40;7.32;;;;;;;6.28;53.32;94511.06;5108413;28;20027;-79
2023/12/21 07:52:23;;;;;;;8.98;6.35;;;;;;;6.73;52.10;94503.13;5107451;28;20028;-79
2023/12/21 07:54:48;;;;;;;10.38;6.68;;;;;;;7.64;50.37;94509.69;5107546;28;20028;-78
2023/12/21 07:57:14;;;;;;;10.93;7.32;;;;;;;8.91;47.36;94503.19;5109166;28;20034;-79
2023/12/21 07:59:40;;;;;;;10.00;7.13;;;;;;;10.62;42.88;94511.41;5108388;28;20123;-77
2023/12/21 08:02:06;;;;;;;11.50;7.55;;;;;;;11.98;40.18;94512.50;5109146;28;20085;-78
2023/12/21 08:04:32;;;;;;;9.50;6.53;;;;;;;12.74;37.20;94508.91;5107733;28;20476;-78
2023/12/21 08:06:58;;;;;;;8.82;5.60;;;;;;;13.58;35.50;94512.25;5108194;28;20024;-78
2023/12/21 08:09:24;;;;;;;8.85;6.30;;;;;;;14.42;34.77;94503.78;5106801;28;20478;-78
2023/12/21 08:11:49;;;;;;;8.32;6.35;;;;;;;15.21;33.40;94508.06;5106975;28;20023;-78
2023/12/21 08:14:14;;;;;;;9.77;6.65;;;;;;;15.95;31.46;94508.75;5107990;28;20043;-78
2023/12/21 08:16:40;;;;;;;9.27;6.38;;;;;;;16.39;30.39;94510.59;5107057;28;20042;-79
2023/12/21 08:19:06;;;;;;;8.57;6.18;;;;;;;16.48;30.15;94501.38;5108276;28;20046;-76
2023/12/21 08:21:31;;;;;;;8.27;5.82;;;;;;;16.97;29.42;94498.44;5107254;28;20024;-76
2023/12/21 08:23:56;;;;;;;9.27;6.60;;;;;;;17.14;29.02;94509.69;5107872;28;20031;-78
2023/12/21 08:26:22;;;;;;;10.23;7.43;;;;;;;17.15;29.41;94502.91;5107248;28;20110;-76
2023/12/21 08:28:47;;;;;;;8.52;6.35;;;;;;;17.53;28.17;94507.28;5107695;28;20032;-77
2023/12/21 08:31:26;;;;;;;7.30;5.72;;;;;;;17.70;28.21;94512.22;5107649;28;20051;-78
2023/12/21 08:33:51;;;;;;;7.22;5.60;;;;;;;17.57;27.35;94512.63;5106927;28;20099;-77
2023/12/21 08:36:17;;;;;;;7.25;5.05;;;;;;;17.49;27.91;94500.41;5108277;28;20024;-76
2023/12/21 08:38:42;;;;;;;7.15;5.53;;;;;;;17.76;27.27;94508.22;5106439;28;20571;-77
2023/12/21 08:41:08;;;;;;;8.00;5.72;;;;;;;18.47;26.72;94505.66;5107537;28;20446;-77
2023/12/21 08:43:35;;;;;;;7.43;5.15;;;;;;;18.63;26.62;94493.03;5106725;28;20027;-79
2023/12/21 08:46:00;;;;;;;6.35;5.10;;;;;;;18.66;26.38;94494.84;5106822;28;20482;-77
2023/12/21 08:48:26;;;;;;;6.80;5.40;;;;;;;17.96;27.02;94496.25;5107748;27;20045;-77
2023/12/21 08:50:52;;;;;;;6.35;5.35;;;;;;;18.13;26.53;94490.03;5106572;28;20507;-79
2023/12/21 08:53:17;;;;;;;7.55;4.85;;;;;;;17.30;27.58;94490.91;5107508;28;20466;-77
2023/12/21 08:55:42;;;;;;;7.45;5.00;;;;;;;16.48;28.63;94484.72;5106324;28;20034;-77
2023/12/21 08:58:08;;;;;;;5.85;4.35;;;;;;;16.48;29.13;94484.72;5107274;28;20027;-77
2023/12/21 09:00:33;;;;;;;10.55;5.15;;;;;;;17.28;28.14;94482.31;5106126;28;20027;-77
2023/12/21 09:02:58;;;;;;;7.57;5.40;;;;;;;18.09;26.78;94475.59;5106881;27;20526;-79
2023/12/21 09:05:24;;;;;;;7.82;4.80;;;;;;;18.72;25.72;94487.28;5106439;28;20031;-78
2023/12/21 09:07:49;;;;;;;5.57;4.40;;;;;;;18.99;25.60;94471.94;5106761;28;20042;-77
2023/12/21 09:10:15;;;;;;;6.75;5.30;;;;;;;19.50;24.58;94467.19;5107017;28;20027;-77
2023/12/21 09:12:40;;;;;;;5.90;4.50;;;;;;;20.29;23.90;94473.41;5106223;28;20031;-77
2023/12/21 09:15:06;;;;;;;6.25;4.88;;;;;;;20.74;23.49;94464.91;5107153;28;20111;-78
2023/12/21 09:17:32;;;;;;;8.18;6.13;;;;;;;21.34;22.74;94464.34;5106078;28;20023;-77
2023/12/21 09:19:57;;;;;;;6.30;4.72;;;;;;;21.54;22.57;94454.78;5106961;28;20387;-77
2023/12/21 09:22:22;;;;;;;6.90;5.40;;;;;;;20.78;23.11;94447.88;5106313;28;20095;-76
2023/12/21 09:24:48;;;;;;;7.03;5.40;;;;;;;21.41;22.38;94450.56;5106806;28;20032;-77
2023/12/21 09:27:16;;;;;;;7.85;5.53;;;;;;;21.31;22.64;94446.56;5105152;28;20102;-77
2023/12/21 09:29:42;;;;;;;7.25;5.13;;;;;;;21.60;22.31;94436.66;5106027;28;20058;-77
2023/12/21 09:32:08;;;;;;;5.85;4.70;;;;;;;21.34;22.70;94436.38;5106811;28;20047;-77
2023/12/21 09:34:33;;;;;;;7.90;6.28;;;;;;;21.13;22.97;94436.75;5105710;28;20031;-77
2023/12/21 09:36:59;;;;;;;6.22;4.95;;;;;;;20.97;23.32;94434.06;5107000;28;20542;-77
2023/12/21 09:39:24;;;;;;;10.93;6.18;;;;;;;20.99;23.33;94423.91;5105502;28;20491;-77
2023/12/21 09:41:50;;;;;;;6.35;4.93;;;;;;;20.77;23.10;94396.09;5106825;28;20024;-77
2023/12/21 09:44:17;;;;;;;6.30;4.82;;;;;;;20.96;22.91;94419.34;5105876;28;20102;-77
2023/12/21 09:46:46;;;;;;;10.27;6.13;;;;;;;20.52;23.50;94418.28;5106028;28;20039;-77
2023/12/21 09:49:16;;;;;;;6.80;5.35;;;;;;;20.52;23.54;94417.53;5105101;28;20030;-76
2023/12/21 09:51:44;;;;;;;7.13;4.70;;;;;;;20.28;23.54;94416.09;5104180;28;20035;-78
2023/12/21 09:54:09;;;;;;;7.18;4.68;;;;;;;19.79;23.76;94401.78;5106613;28;20027;-76
2023/12/21 09:56:35;;;;;;;8.10;5.03;;;;;;;19.56;24.06;94398.25;5105333;28;20038;-77
2023/12/21 09:59:01;;;;;;;7.50;5.00;;;;;;;18.89;24.97;94389.88;5106298;28;20026;-76
2023/12/21 10:01:26;;;;;;;7.13;5.25;;;;;;;18.47;25.49;94396.34;5105961;28;20084;-76
2023/12/21 10:03:52;;;;;;;6.47;4.03;;;;;;;18.37;25.76;94383.91;5105930;28;20059;-76
2023/12/21 10:06:18;;;;;;;6.40;4.32;;;;;;;18.03;26.11;94376.19;5105993;28;20023;-78
2023/12/21 10:08:43;;;;;;;6.68;4.50;;;;;;;17.75;26.60;94364.19;5103762;28;20023;-77
2023/12/21 10:11:08;;;;;;;8.10;4.95;;;;;;;17.76;26.75;94358.13;5106135;28;20049;-76
2023/12/21 10:13:34;;;;;;;5.57;4.30;;;;;;;17.46;27.10;94354.91;5105099;28;20076;-77
2023/12/21 10:16:00;;;;;;;8.77;5.07;;;;;;;17.56;26.90;94352.69;5106175;28;20375;-77
2023/12/21 10:18:26;;;;;;;8.05;5.57;;;;;;;17.66;26.66;94351.25;5105530;28;20028;-76
2023/12/21 10:20:53;;;;;;;7.07;4.93;;;;;;;17.80;26.76;94351.59;5106005;28;20058;-76
2023/12/21 10:23:19;;;;;;;6.35;4.50;;;;;;;17.64;26.52;94345.41;5105802;28;20028;-76
2023/12/21 10:25:46;;;;;;;6.82;4.25;;;;;;;17.79;26.44;94348.03;5105393;28;20123;-77
2023/12/21 10:28:11;;;;;;;4.90;3.50;;;;;;;17.82;26.07;94333.13;5106224;28;20058;-77
2023/12/21 10:30:37;;;;;;;7.32;4.82;;;;;;;18.05;26.10;94326.41;5104833;28;20023;-76
2023/12/21 10:33:03;;;;;;;6.22;4.38;;;;;;;18.17;25.71;94318.84;5106200;28;20403;-77
2023/12/21 10:35:29;;;;;;;6.30;4.40;;;;;;;18.43;25.57;94320.69;5105566;28;20031;-77
2023/12/21 10:37:54;;;;;;;7.63;3.97;;;;;;;18.61;25.65;94330.59;5110200;28;20039;-76
2023/12/21 10:40:22;;;;;;;5.78;4.10;;;;;;;18.48;25.36;94312.34;5109419;28;20402;-77
2023/12/21 10:42:48;;;;;;;7.70;5.80;;;;;;;18.37;25.93;94317.13;5109402;28;20520;-76
2023/12/21 10:45:15;;;;;;;8.63;6.60;;;;;;;18.51;25.57;94313.34;5110334;28;20023;-76
2023/12/21 10:47:48;;;;;;;8.52;5.38;;;;;;;18.29;25.81;94306.50;5108653;28;20024;-76
2023/12/21 10:50:15;;;;;;;10.03;6.67;;;;;;;18.04;26.36;94299.84;5109990;28;20072;-76
2023/12/21 10:52:42;;;;;;;9.88;6.38;;;;;;;18.13;26.06;94282.19;5108840;28;20067;-78
2023/12/21 10:55:10;;;;;;;6.50;4.07;;;;;;;18.71;25.31;94287.34;5108218;28;20031;-77
2023/12/21 10:57:38;;;;;;;6.22;4.32;;;;;;;18.87;25.16;94283.03;5109783;28;20030;-78
2023/12/21 11:00:05;;;;;;;7.15;4.78;;;;;;;19.07;24.82;94280.75;5108739;28;20054;-77
2023/12/21 11:02:30;;;;;;;7.15;4.88;;;;;;;18.47;25.63;94274.66;5108586;28;20054;-77
2023/12/21 11:04:56;;;;;;;6.35;4.43;;;;;;;19.31;24.62;94271.06;5107285;28;20466;-77
2023/12/21 11:07:22;;;;;;;9.23;4.32;;;;;;;20.47;23.66;94270.34;5108233;28;20490;-77
2023/12/21 11:09:48;;;;;;;6.47;4.53;;;;;;;21.64;22.28;94274.94;5108334;27;20038;-77
2023/12/21 11:12:13;;;;;;;7.85;5.25;;;;;;;22.41;21.33;94271.69;5107829;28;20102;-78
2023/12/21 11:14:39;;;;;;;7.22;5.00;;;;;;;23.32;20.21;94260.59;5108386;27;20050;-77
2023/12/21 11:17:05;;;;;;;7.43;4.65;;;;;;;24.31;19.27;94261.94;5107287;28;20030;-77
2023/12/21 11:19:34;;;;;;;8.65;6.20;;;;;;;24.96;18.75;94251.06;5109039;28;20020;-77
2023/12/21 11:22:00;;;;;;;7.10;4.75;;;;;;;25.88;18.04;94254.59;5106662;28;20516;-76